sensor_id;sensor_type;location;lat;lon;timestamp;P1;durP1;ratioP1;P2;durP2;ratioP2
52620;SDS011;38515;53.160;6.990;2023-05-07T00:01:56;62.47;;;50.63;;
52620;SDS011;38515;53.160;6.990;2023-05-07T00:04:22;66.50;;;50.97;;
52620;SDS011;38515;53.160;6.990;2023-05-07T00:06:48;81.88;;;56.88;;
52620;SDS011;38515;53.160;6.990;2023-05-07T00:09:14;68.03;;;52.33;;
52620;SDS011;38515;53.160;6.990;2023-05-07T00:11:41;85.10;;;56.72;;
52620;SDS011;38515;53.160;6.990;2023-05-07T00:14:07;85.03;;;57.75;;
52620;SDS011;38515;53.160;6.990;2023-05-07T00:16:33;76.63;;;54.75;;
52620;SDS011;38515;53.160;6.990;2023-05-07T00:18:59;73.28;;;53.28;;
52620;SDS011;38515;53.160;6.990;2023-05-07T00:21:25;85.70;;;59.05;;
52620;SDS011;38515;53.160;6.990;2023-05-07T00:23:54;62.83;;;51.47;;
52620;SDS011;38515;53.160;6.990;2023-05-07T00:26:19;58.50;;;51.40;;
52620;SDS011;38515;53.160;6.990;2023-05-07T00:28:46;74.50;;;57.30;;
52620;SDS011;38515;53.160;6.990;2023-05-07T00:31:11;64.68;;;52.33;;
52620;SDS011;38515;53.160;6.990;2023-05-07T00:33:37;63.60;;;53.38;;
52620;SDS011;38515;53.160;6.990;2023-05-07T00:36:04;62.97;;;52.28;;
52620;SDS011;38515;53.160;6.990;2023-05-07T00:38:30;66.20;;;52.75;;
52620;SDS011;38515;53.160;6.990;2023-05-07T00:40:56;63.28;;;50.67;;
52620;SDS011;38515;53.160;6.990;2023-05-07T00:43:21;79.22;;;58.70;;
52620;SDS011;38515;53.160;6.990;2023-05-07T00:45:47;67.93;;;54.22;;
52620;SDS011;38515;53.160;6.990;2023-05-07T00:48:13;75.82;;;58.40;;
52620;SDS011;38515;53.160;6.990;2023-05-07T00:50:41;65.18;;;54.03;;
52620;SDS011;38515;53.160;6.990;2023-05-07T00:53:07;63.55;;;50.92;;
52620;SDS011;38515;53.160;6.990;2023-05-07T00:55:33;66.47;;;51.92;;
52620;SDS011;38515;53.160;6.990;2023-05-07T00:58:00;73.20;;;54.47;;
52620;SDS011;38515;53.160;6.990;2023-05-07T01:00:25;74.80;;;59.50;;
52620;SDS011;38515;53.160;6.990;2023-05-07T01:02:52;74.32;;;58.40;;
52620;SDS011;38515;53.160;6.990;2023-05-07T01:05:18;87.05;;;61.67;;
52620;SDS011;38515;53.160;6.990;2023-05-07T01:07:47;90.63;;;62.30;;
52620;SDS011;38515;53.160;6.990;2023-05-07T01:10:13;82.22;;;64.40;;
52620;SDS011;38515;53.160;6.990;2023-05-07T01:12:40;79.63;;;59.72;;
52620;SDS011;38515;53.160;6.990;2023-05-07T01:15:07;85.25;;;63.72;;
52620;SDS011;38515;53.160;6.990;2023-05-07T01:17:34;82.97;;;61.33;;
52620;SDS011;38515;53.160;6.990;2023-05-07T01:20:01;74.45;;;59.25;;
52620;SDS011;38515;53.160;6.990;2023-05-07T01:22:30;81.82;;;59.88;;
52620;SDS011;38515;53.160;6.990;2023-05-07T01:25:04;94.07;;;63.92;;
52620;SDS011;38515;53.160;6.990;2023-05-07T01:27:31;104.32;;;67.53;;
52620;SDS011;38515;53.160;6.990;2023-05-07T01:29:58;85.43;;;62.65;;
52620;SDS011;38515;53.160;6.990;2023-05-07T01:32:27;79.07;;;61.10;;
52620;SDS011;38515;53.160;6.990;2023-05-07T01:34:58;92.13;;;63.45;;
52620;SDS011;38515;53.160;6.990;2023-05-07T01:37:26;82.88;;;63.20;;
52620;SDS011;38515;53.160;6.990;2023-05-07T01:39:52;82.20;;;63.25;;
52620;SDS011;38515;53.160;6.990;2023-05-07T01:42:19;102.13;;;66.15;;
52620;SDS011;38515;53.160;6.990;2023-05-07T01:44:45;80.75;;;63.92;;
52620;SDS011;38515;53.160;6.990;2023-05-07T01:47:11;85.75;;;71.15;;
52620;SDS011;38515;53.160;6.990;2023-05-07T01:49:39;96.18;;;76.80;;
52620;SDS011;38515;53.160;6.990;2023-05-07T01:52:05;95.80;;;67.30;;
52620;SDS011;38515;53.160;6.990;2023-05-07T01:54:31;86.38;;;66.80;;
52620;SDS011;38515;53.160;6.990;2023-05-07T01:56:57;78.15;;;65.50;;
52620;SDS011;38515;53.160;6.990;2023-05-07T01:59:23;88.03;;;67.55;;
52620;SDS011;38515;53.160;6.990;2023-05-07T02:01:49;90.40;;;65.60;;
52620;SDS011;38515;53.160;6.990;2023-05-07T02:04:14;86.32;;;58.17;;
52620;SDS011;38515;53.160;6.990;2023-05-07T02:06:40;77.90;;;57.53;;
52620;SDS011;38515;53.160;6.990;2023-05-07T02:09:06;75.65;;;55.72;;
52620;SDS011;38515;53.160;6.990;2023-05-07T02:11:34;99.63;;;62.65;;
52620;SDS011;38515;53.160;6.990;2023-05-07T02:14:00;75.97;;;60.22;;
52620;SDS011;38515;53.160;6.990;2023-05-07T02:16:25;106.20;;;63.22;;
52620;SDS011;38515;53.160;6.990;2023-05-07T02:18:51;104.13;;;63.72;;
52620;SDS011;38515;53.160;6.990;2023-05-07T02:21:17;116.85;;;73.13;;
52620;SDS011;38515;53.160;6.990;2023-05-07T02:23:43;123.18;;;84.05;;
52620;SDS011;38515;53.160;6.990;2023-05-07T02:26:10;104.82;;;75.20;;
52620;SDS011;38515;53.160;6.990;2023-05-07T02:28:36;84.50;;;59.08;;
52620;SDS011;38515;53.160;6.990;2023-05-07T02:31:02;91.85;;;61.78;;
52620;SDS011;38515;53.160;6.990;2023-05-07T02:33:28;88.75;;;60.50;;
52620;SDS011;38515;53.160;6.990;2023-05-07T02:35:55;95.63;;;64.28;;
52620;SDS011;38515;53.160;6.990;2023-05-07T02:38:21;86.97;;;63.47;;
52620;SDS011;38515;53.160;6.990;2023-05-07T02:40:48;90.22;;;61.42;;
52620;SDS011;38515;53.160;6.990;2023-05-07T02:43:14;97.03;;;69.78;;
52620;SDS011;38515;53.160;6.990;2023-05-07T02:45:40;70.53;;;55.17;;
52620;SDS011;38515;53.160;6.990;2023-05-07T02:48:05;92.30;;;61.13;;
52620;SDS011;38515;53.160;6.990;2023-05-07T02:50:32;92.10;;;64.00;;
52620;SDS011;38515;53.160;6.990;2023-05-07T02:52:58;113.13;;;69.60;;
52620;SDS011;38515;53.160;6.990;2023-05-07T02:55:23;89.22;;;62.25;;
52620;SDS011;38515;53.160;6.990;2023-05-07T02:57:49;93.85;;;65.25;;
52620;SDS011;38515;53.160;6.990;2023-05-07T03:00:18;100.47;;;70.85;;
52620;SDS011;38515;53.160;6.990;2023-05-07T03:02:44;108.53;;;75.13;;
52620;SDS011;38515;53.160;6.990;2023-05-07T03:05:10;113.30;;;77.07;;
52620;SDS011;38515;53.160;6.990;2023-05-07T03:07:37;110.80;;;72.75;;
52620;SDS011;38515;53.160;6.990;2023-05-07T03:10:03;92.80;;;68.80;;
52620;SDS011;38515;53.160;6.990;2023-05-07T03:12:30;118.80;;;77.32;;
52620;SDS011;38515;53.160;6.990;2023-05-07T03:14:56;106.05;;;75.28;;
52620;SDS011;38515;53.160;6.990;2023-05-07T03:17:22;101.60;;;74.95;;
52620;SDS011;38515;53.160;6.990;2023-05-07T03:19:48;117.90;;;78.88;;
52620;SDS011;38515;53.160;6.990;2023-05-07T03:22:14;101.95;;;70.20;;
52620;SDS011;38515;53.160;6.990;2023-05-07T03:24:39;108.47;;;73.65;;
52620;SDS011;38515;53.160;6.990;2023-05-07T03:27:05;92.28;;;77.35;;
52620;SDS011;38515;53.160;6.990;2023-05-07T03:29:31;96.45;;;73.05;;
52620;SDS011;38515;53.160;6.990;2023-05-07T03:31:57;80.03;;;61.15;;
52620;SDS011;38515;53.160;6.990;2023-05-07T03:34:22;73.00;;;57.92;;
52620;SDS011;38515;53.160;6.990;2023-05-07T03:36:49;71.03;;;55.40;;
52620;SDS011;38515;53.160;6.990;2023-05-07T03:39:14;72.28;;;56.95;;
52620;SDS011;38515;53.160;6.990;2023-05-07T03:41:40;81.38;;;62.15;;
52620;SDS011;38515;53.160;6.990;2023-05-07T03:44:06;77.18;;;57.65;;
52620;SDS011;38515;53.160;6.990;2023-05-07T03:46:32;69.75;;;51.08;;
52620;SDS011;38515;53.160;6.990;2023-05-07T03:48:59;61.83;;;52.28;;
52620;SDS011;38515;53.160;6.990;2023-05-07T03:51:25;69.25;;;54.65;;
52620;SDS011;38515;53.160;6.990;2023-05-07T03:53:51;67.78;;;54.85;;
52620;SDS011;38515;53.160;6.990;2023-05-07T03:56:18;66.03;;;52.80;;
52620;SDS011;38515;53.160;6.990;2023-05-07T03:58:44;63.60;;;50.10;;
52620;SDS011;38515;53.160;6.990;2023-05-07T04:01:10;66.72;;;54.65;;
52620;SDS011;38515;53.160;6.990;2023-05-07T04:03:37;66.47;;;56.13;;
52620;SDS011;38515;53.160;6.990;2023-05-07T04:06:03;68.65;;;55.80;;
52620;SDS011;38515;53.160;6.990;2023-05-07T04:08:28;74.10;;;58.28;;
52620;SDS011;38515;53.160;6.990;2023-05-07T04:10:55;71.55;;;55.67;;
52620;SDS011;38515;53.160;6.990;2023-05-07T04:13:21;81.45;;;61.78;;
52620;SDS011;38515;53.160;6.990;2023-05-07T04:15:47;79.32;;;62.75;;
52620;SDS011;38515;53.160;6.990;2023-05-07T04:18:14;85.97;;;63.67;;
52620;SDS011;38515;53.160;6.990;2023-05-07T04:20:40;87.72;;;66.53;;
52620;SDS011;38515;53.160;6.990;2023-05-07T04:23:06;101.03;;;72.25;;
52620;SDS011;38515;53.160;6.990;2023-05-07T04:25:32;101.18;;;70.25;;
52620;SDS011;38515;53.160;6.990;2023-05-07T04:27:59;101.40;;;72.28;;
52620;SDS011;38515;53.160;6.990;2023-05-07T04:30:24;95.38;;;68.82;;
52620;SDS011;38515;53.160;6.990;2023-05-07T04:32:50;81.75;;;61.67;;
52620;SDS011;38515;53.160;6.990;2023-05-07T04:35:17;82.32;;;61.70;;
52620;SDS011;38515;53.160;6.990;2023-05-07T04:37:42;73.65;;;57.28;;
52620;SDS011;38515;53.160;6.990;2023-05-07T04:40:08;74.10;;;56.25;;
52620;SDS011;38515;53.160;6.990;2023-05-07T04:42:35;72.85;;;57.40;;
52620;SDS011;38515;53.160;6.990;2023-05-07T04:45:01;72.70;;;55.65;;
52620;SDS011;38515;53.160;6.990;2023-05-07T04:47:27;77.10;;;63.28;;
52620;SDS011;38515;53.160;6.990;2023-05-07T04:49:53;97.03;;;69.72;;
52620;SDS011;38515;53.160;6.990;2023-05-07T04:52:19;106.43;;;78.40;;
52620;SDS011;38515;53.160;6.990;2023-05-07T04:54:45;113.20;;;78.60;;
52620;SDS011;38515;53.160;6.990;2023-05-07T04:57:11;103.55;;;76.10;;
52620;SDS011;38515;53.160;6.990;2023-05-07T04:59:37;101.63;;;75.45;;
52620;SDS011;38515;53.160;6.990;2023-05-07T05:02:02;80.38;;;63.25;;
52620;SDS011;38515;53.160;6.990;2023-05-07T05:04:29;70.00;;;55.47;;
52620;SDS011;38515;53.160;6.990;2023-05-07T05:06:55;66.10;;;51.72;;
52620;SDS011;38515;53.160;6.990;2023-05-07T05:09:21;69.18;;;55.28;;
52620;SDS011;38515;53.160;6.990;2023-05-07T05:11:47;78.03;;;59.75;;
52620;SDS011;38515;53.160;6.990;2023-05-07T05:14:13;83.78;;;65.35;;
52620;SDS011;38515;53.160;6.990;2023-05-07T05:16:39;84.13;;;64.93;;
52620;SDS011;38515;53.160;6.990;2023-05-07T05:19:05;81.72;;;67.47;;
52620;SDS011;38515;53.160;6.990;2023-05-07T05:21:31;80.00;;;59.03;;
52620;SDS011;38515;53.160;6.990;2023-05-07T05:23:57;73.03;;;60.95;;
52620;SDS011;38515;53.160;6.990;2023-05-07T05:26:23;78.63;;;62.35;;
52620;SDS011;38515;53.160;6.990;2023-05-07T05:28:49;82.00;;;61.40;;
52620;SDS011;38515;53.160;6.990;2023-05-07T05:31:15;76.72;;;58.88;;
52620;SDS011;38515;53.160;6.990;2023-05-07T05:33:41;75.72;;;59.65;;
52620;SDS011;38515;53.160;6.990;2023-05-07T05:36:10;77.05;;;62.30;;
52620;SDS011;38515;53.160;6.990;2023-05-07T05:38:38;78.13;;;59.72;;
52620;SDS011;38515;53.160;6.990;2023-05-07T05:41:04;69.70;;;57.95;;
52620;SDS011;38515;53.160;6.990;2023-05-07T05:43:31;75.60;;;57.50;;
52620;SDS011;38515;53.160;6.990;2023-05-07T05:45:56;65.18;;;54.10;;
52620;SDS011;38515;53.160;6.990;2023-05-07T05:48:22;61.78;;;55.30;;
52620;SDS011;38515;53.160;6.990;2023-05-07T05:50:49;58.35;;;48.65;;
52620;SDS011;38515;53.160;6.990;2023-05-07T05:53:14;59.10;;;52.83;;
52620;SDS011;38515;53.160;6.990;2023-05-07T05:55:41;53.20;;;47.67;;
52620;SDS011;38515;53.160;6.990;2023-05-07T05:58:07;49.53;;;44.58;;
52620;SDS011;38515;53.160;6.990;2023-05-07T06:00:34;48.67;;;43.63;;
52620;SDS011;38515;53.160;6.990;2023-05-07T06:03:00;51.53;;;46.35;;
52620;SDS011;38515;53.160;6.990;2023-05-07T06:05:26;51.33;;;45.92;;
52620;SDS011;38515;53.160;6.990;2023-05-07T06:07:52;47.72;;;42.63;;
52620;SDS011;38515;53.160;6.990;2023-05-07T06:10:17;49.92;;;44.70;;
52620;SDS011;38515;53.160;6.990;2023-05-07T06:12:43;51.13;;;45.92;;
52620;SDS011;38515;53.160;6.990;2023-05-07T06:15:09;46.45;;;41.35;;
52620;SDS011;38515;53.160;6.990;2023-05-07T06:17:35;48.50;;;43.35;;
52620;SDS011;38515;53.160;6.990;2023-05-07T06:20:01;50.72;;;45.30;;
52620;SDS011;38515;53.160;6.990;2023-05-07T06:22:27;51.00;;;45.90;;
52620;SDS011;38515;53.160;6.990;2023-05-07T06:24:53;48.10;;;43.05;;
52620;SDS011;38515;53.160;6.990;2023-05-07T06:27:19;48.35;;;43.70;;
52620;SDS011;38515;53.160;6.990;2023-05-07T06:29:45;52.65;;;47.53;;
52620;SDS011;38515;53.160;6.990;2023-05-07T06:32:13;49.97;;;45.00;;
52620;SDS011;38515;53.160;6.990;2023-05-07T06:34:40;56.63;;;51.03;;
52620;SDS011;38515;53.160;6.990;2023-05-07T06:37:06;50.10;;;44.90;;
52620;SDS011;38515;53.160;6.990;2023-05-07T06:39:32;49.67;;;44.45;;
52620;SDS011;38515;53.160;6.990;2023-05-07T06:41:59;48.40;;;43.47;;
52620;SDS011;38515;53.160;6.990;2023-05-07T06:44:26;52.90;;;47.78;;
52620;SDS011;38515;53.160;6.990;2023-05-07T06:46:55;52.03;;;47.03;;
52620;SDS011;38515;53.160;6.990;2023-05-07T06:49:21;48.05;;;43.00;;
52620;SDS011;38515;53.160;6.990;2023-05-07T06:51:47;48.00;;;43.00;;
52620;SDS011;38515;53.160;6.990;2023-05-07T06:54:13;47.78;;;43.03;;
52620;SDS011;38515;53.160;6.990;2023-05-07T06:56:39;43.30;;;38.22;;
52620;SDS011;38515;53.160;6.990;2023-05-07T06:59:05;45.00;;;39.55;;
52620;SDS011;38515;53.160;6.990;2023-05-07T07:01:31;47.95;;;42.95;;
52620;SDS011;38515;53.160;6.990;2023-05-07T07:03:57;51.85;;;46.28;;
52620;SDS011;38515;53.160;6.990;2023-05-07T07:06:23;52.45;;;46.92;;
52620;SDS011;38515;53.160;6.990;2023-05-07T07:08:50;52.47;;;47.25;;
52620;SDS011;38515;53.160;6.990;2023-05-07T07:11:16;50.42;;;45.15;;
52620;SDS011;38515;53.160;6.990;2023-05-07T07:13:42;42.53;;;35.53;;
52620;SDS011;38515;53.160;6.990;2023-05-07T07:16:08;42.28;;;34.08;;
52620;SDS011;38515;53.160;6.990;2023-05-07T07:18:34;46.70;;;34.92;;
52620;SDS011;38515;53.160;6.990;2023-05-07T07:21:01;37.63;;;30.92;;
52620;SDS011;38515;53.160;6.990;2023-05-07T07:23:26;37.85;;;29.98;;
52620;SDS011;38515;53.160;6.990;2023-05-07T07:25:52;39.42;;;32.05;;
52620;SDS011;38515;53.160;6.990;2023-05-07T07:28:20;35.67;;;31.38;;
52620;SDS011;38515;53.160;6.990;2023-05-07T07:30:46;39.60;;;33.20;;
52620;SDS011;38515;53.160;6.990;2023-05-07T07:33:12;37.80;;;31.65;;
52620;SDS011;38515;53.160;6.990;2023-05-07T07:35:38;36.53;;;31.35;;
52620;SDS011;38515;53.160;6.990;2023-05-07T07:38:04;36.25;;;32.25;;
52620;SDS011;38515;53.160;6.990;2023-05-07T07:40:30;43.22;;;31.98;;
52620;SDS011;38515;53.160;6.990;2023-05-07T07:42:56;37.90;;;31.65;;
52620;SDS011;38515;53.160;6.990;2023-05-07T07:45:22;38.72;;;32.63;;
52620;SDS011;38515;53.160;6.990;2023-05-07T07:47:48;38.53;;;30.55;;
52620;SDS011;38515;53.160;6.990;2023-05-07T07:50:14;38.92;;;32.05;;
52620;SDS011;38515;53.160;6.990;2023-05-07T07:52:40;40.53;;;31.30;;
52620;SDS011;38515;53.160;6.990;2023-05-07T07:55:06;39.45;;;31.23;;
52620;SDS011;38515;53.160;6.990;2023-05-07T07:57:32;39.80;;;31.33;;
52620;SDS011;38515;53.160;6.990;2023-05-07T07:59:58;38.00;;;30.92;;
52620;SDS011;38515;53.160;6.990;2023-05-07T08:02:24;39.75;;;32.63;;
52620;SDS011;38515;53.160;6.990;2023-05-07T08:04:50;41.17;;;31.88;;
52620;SDS011;38515;53.160;6.990;2023-05-07T08:07:16;39.83;;;31.67;;
52620;SDS011;38515;53.160;6.990;2023-05-07T08:09:47;38.22;;;30.90;;
52620;SDS011;38515;53.160;6.990;2023-05-07T08:12:13;36.25;;;30.65;;
52620;SDS011;38515;53.160;6.990;2023-05-07T08:14:39;36.50;;;30.55;;
52620;SDS011;38515;53.160;6.990;2023-05-07T08:17:05;39.72;;;32.13;;
52620;SDS011;38515;53.160;6.990;2023-05-07T08:19:30;34.38;;;30.17;;
52620;SDS011;38515;53.160;6.990;2023-05-07T08:21:56;35.47;;;30.20;;
52620;SDS011;38515;53.160;6.990;2023-05-07T08:24:22;36.10;;;29.67;;
52620;SDS011;38515;53.160;6.990;2023-05-07T08:26:48;35.25;;;28.92;;
52620;SDS011;38515;53.160;6.990;2023-05-07T08:29:15;35.30;;;27.60;;
52620;SDS011;38515;53.160;6.990;2023-05-07T08:31:41;38.65;;;28.35;;
52620;SDS011;38515;53.160;6.990;2023-05-07T08:34:06;35.08;;;27.70;;
52620;SDS011;38515;53.160;6.990;2023-05-07T08:36:32;37.13;;;28.75;;
52620;SDS011;38515;53.160;6.990;2023-05-07T08:38:59;38.50;;;28.60;;
52620;SDS011;38515;53.160;6.990;2023-05-07T08:41:25;36.28;;;29.77;;
52620;SDS011;38515;53.160;6.990;2023-05-07T08:43:51;33.83;;;28.83;;
52620;SDS011;38515;53.160;6.990;2023-05-07T08:46:18;32.13;;;27.95;;
52620;SDS011;38515;53.160;6.990;2023-05-07T08:48:49;30.55;;;26.85;;
52620;SDS011;38515;53.160;6.990;2023-05-07T08:51:17;34.28;;;26.05;;
52620;SDS011;38515;53.160;6.990;2023-05-07T08:53:45;32.92;;;28.02;;
52620;SDS011;38515;53.160;6.990;2023-05-07T08:56:13;31.27;;;27.75;;
52620;SDS011;38515;53.160;6.990;2023-05-07T08:58:41;29.38;;;26.10;;
52620;SDS011;38515;53.160;6.990;2023-05-07T09:01:12;31.60;;;26.90;;
52620;SDS011;38515;53.160;6.990;2023-05-07T09:03:39;30.83;;;26.63;;
52620;SDS011;38515;53.160;6.990;2023-05-07T09:06:05;32.28;;;26.38;;
52620;SDS011;38515;53.160;6.990;2023-05-07T09:08:34;35.28;;;27.38;;
52620;SDS011;38515;53.160;6.990;2023-05-07T09:11:01;34.58;;;24.60;;
52620;SDS011;38515;53.160;6.990;2023-05-07T09:13:27;32.33;;;26.35;;
52620;SDS011;38515;53.160;6.990;2023-05-07T09:15:54;31.92;;;26.27;;
52620;SDS011;38515;53.160;6.990;2023-05-07T09:18:21;30.30;;;25.73;;
52620;SDS011;38515;53.160;6.990;2023-05-07T09:20:49;27.95;;;24.77;;
52620;SDS011;38515;53.160;6.990;2023-05-07T09:23:16;29.02;;;24.58;;
52620;SDS011;38515;53.160;6.990;2023-05-07T09:25:42;29.92;;;24.02;;
52620;SDS011;38515;53.160;6.990;2023-05-07T09:28:08;28.08;;;25.20;;
52620;SDS011;38515;53.160;6.990;2023-05-07T09:30:37;26.48;;;23.77;;
52620;SDS011;38515;53.160;6.990;2023-05-07T09:33:03;26.42;;;23.63;;
52620;SDS011;38515;53.160;6.990;2023-05-07T09:35:30;27.35;;;24.42;;
52620;SDS011;38515;53.160;6.990;2023-05-07T09:37:56;28.83;;;25.25;;
52620;SDS011;38515;53.160;6.990;2023-05-07T09:40:24;25.80;;;22.95;;
52620;SDS011;38515;53.160;6.990;2023-05-07T09:42:52;28.92;;;25.85;;
52620;SDS011;38515;53.160;6.990;2023-05-07T09:45:22;27.52;;;24.73;;
52620;SDS011;38515;53.160;6.990;2023-05-07T09:47:50;28.20;;;24.17;;
52620;SDS011;38515;53.160;6.990;2023-05-07T09:50:19;28.77;;;25.73;;
52620;SDS011;38515;53.160;6.990;2023-05-07T09:52:52;28.13;;;25.38;;
52620;SDS011;38515;53.160;6.990;2023-05-07T09:55:18;27.40;;;24.60;;
52620;SDS011;38515;53.160;6.990;2023-05-07T09:57:45;29.60;;;26.50;;
52620;SDS011;38515;53.160;6.990;2023-05-07T10:00:12;32.80;;;29.52;;
52620;SDS011;38515;53.160;6.990;2023-05-07T10:02:40;29.80;;;25.85;;
52620;SDS011;38515;53.160;6.990;2023-05-07T10:05:13;28.13;;;25.33;;
52620;SDS011;38515;53.160;6.990;2023-05-07T10:07:40;25.45;;;22.88;;
52620;SDS011;38515;53.160;6.990;2023-05-07T10:10:06;27.02;;;24.52;;
52620;SDS011;38515;53.160;6.990;2023-05-07T10:12:33;26.58;;;23.85;;
52620;SDS011;38515;53.160;6.990;2023-05-07T10:15:13;28.55;;;25.58;;
52620;SDS011;38515;53.160;6.990;2023-05-07T10:17:39;25.48;;;22.90;;
52620;SDS011;38515;53.160;6.990;2023-05-07T10:20:06;27.83;;;23.45;;
52620;SDS011;38515;53.160;6.990;2023-05-07T10:22:43;26.13;;;23.63;;
52620;SDS011;38515;53.160;6.990;2023-05-07T10:25:14;26.45;;;23.55;;
52620;SDS011;38515;53.160;6.990;2023-05-07T10:27:44;27.75;;;25.15;;
52620;SDS011;38515;53.160;6.990;2023-05-07T10:33:01;25.33;;;22.83;;
52620;SDS011;38515;53.160;6.990;2023-05-07T10:35:40;24.45;;;22.13;;
52620;SDS011;38515;53.160;6.990;2023-05-07T10:38:08;26.05;;;23.85;;
52620;SDS011;38515;53.160;6.990;2023-05-07T10:40:35;26.92;;;24.30;;
52620;SDS011;38515;53.160;6.990;2023-05-07T10:43:02;23.85;;;21.35;;
52620;SDS011;38515;53.160;6.990;2023-05-07T10:45:32;23.65;;;20.27;;
52620;SDS011;38515;53.160;6.990;2023-05-07T10:50:39;21.55;;;19.48;;
52620;SDS011;38515;53.160;6.990;2023-05-07T10:55:47;23.70;;;21.45;;
52620;SDS011;38515;53.160;6.990;2023-05-07T10:58:27;24.42;;;22.08;;
52620;SDS011;38515;53.160;6.990;2023-05-07T11:01:00;25.02;;;22.70;;
52620;SDS011;38515;53.160;6.990;2023-05-07T11:03:27;22.95;;;20.77;;
52620;SDS011;38515;53.160;6.990;2023-05-07T11:06:09;23.70;;;21.20;;
52620;SDS011;38515;53.160;6.990;2023-05-07T11:08:53;25.02;;;22.65;;
52620;SDS011;38515;53.160;6.990;2023-05-07T11:11:19;21.30;;;19.20;;
52620;SDS011;38515;53.160;6.990;2023-05-07T11:14:05;26.65;;;24.45;;
52620;SDS011;38515;53.160;6.990;2023-05-07T11:16:31;23.33;;;21.17;;
52620;SDS011;38515;53.160;6.990;2023-05-07T11:18:58;22.48;;;20.33;;
52620;SDS011;38515;53.160;6.990;2023-05-07T11:21:42;20.98;;;18.95;;
52620;SDS011;38515;53.160;6.990;2023-05-07T11:24:09;24.50;;;22.40;;
52620;SDS011;38515;53.160;6.990;2023-05-07T11:26:48;22.10;;;19.95;;
52620;SDS011;38515;53.160;6.990;2023-05-07T11:29:16;23.77;;;21.52;;
52620;SDS011;38515;53.160;6.990;2023-05-07T11:31:53;23.67;;;21.35;;
52620;SDS011;38515;53.160;6.990;2023-05-07T11:34:23;27.73;;;25.13;;
52620;SDS011;38515;53.160;6.990;2023-05-07T11:36:51;28.77;;;26.38;;
52620;SDS011;38515;53.160;6.990;2023-05-07T11:39:27;26.80;;;24.50;;
52620;SDS011;38515;53.160;6.990;2023-05-07T11:41:55;27.40;;;24.70;;
52620;SDS011;38515;53.160;6.990;2023-05-07T11:44:21;25.13;;;22.95;;
52620;SDS011;38515;53.160;6.990;2023-05-07T11:46:47;27.35;;;24.77;;
52620;SDS011;38515;53.160;6.990;2023-05-07T11:49:14;28.13;;;25.60;;
52620;SDS011;38515;53.160;6.990;2023-05-07T11:51:40;25.48;;;22.88;;
52620;SDS011;38515;53.160;6.990;2023-05-07T11:54:07;26.17;;;24.02;;
52620;SDS011;38515;53.160;6.990;2023-05-07T11:56:36;26.35;;;24.10;;
52620;SDS011;38515;53.160;6.990;2023-05-07T11:59:02;33.83;;;31.23;;
52620;SDS011;38515;53.160;6.990;2023-05-07T12:01:28;47.20;;;43.78;;
52620;SDS011;38515;53.160;6.990;2023-05-07T12:03:54;46.10;;;43.08;;
52620;SDS011;38515;53.160;6.990;2023-05-07T12:06:20;47.30;;;44.20;;
52620;SDS011;38515;53.160;6.990;2023-05-07T12:08:46;37.22;;;34.70;;
52620;SDS011;38515;53.160;6.990;2023-05-07T12:11:13;39.15;;;36.20;;
52620;SDS011;38515;53.160;6.990;2023-05-07T12:13:42;35.65;;;32.95;;
52620;SDS011;38515;53.160;6.990;2023-05-07T12:16:08;24.60;;;22.58;;
52620;SDS011;38515;53.160;6.990;2023-05-07T12:18:35;34.00;;;31.30;;
52620;SDS011;38515;53.160;6.990;2023-05-07T12:21:02;38.83;;;35.97;;
52620;SDS011;38515;53.160;6.990;2023-05-07T12:23:30;36.70;;;34.10;;
52620;SDS011;38515;53.160;6.990;2023-05-07T12:25:56;32.17;;;29.77;;
52620;SDS011;38515;53.160;6.990;2023-05-07T12:28:22;39.30;;;36.70;;
52620;SDS011;38515;53.160;6.990;2023-05-07T12:30:48;44.88;;;42.08;;
52620;SDS011;38515;53.160;6.990;2023-05-07T12:33:17;49.97;;;46.85;;
52620;SDS011;38515;53.160;6.990;2023-05-07T12:35:47;45.28;;;42.40;;
52620;SDS011;38515;53.160;6.990;2023-05-07T12:38:13;40.53;;;37.80;;
52620;SDS011;38515;53.160;6.990;2023-05-07T12:40:48;36.63;;;34.13;;
52620;SDS011;38515;53.160;6.990;2023-05-07T12:43:25;37.97;;;35.38;;
52620;SDS011;38515;53.160;6.990;2023-05-07T12:45:53;37.70;;;34.92;;
52620;SDS011;38515;53.160;6.990;2023-05-07T12:48:21;32.67;;;30.27;;
52620;SDS011;38515;53.160;6.990;2023-05-07T12:50:51;41.45;;;38.72;;
52620;SDS011;38515;53.160;6.990;2023-05-07T12:53:23;35.78;;;33.25;;
52620;SDS011;38515;53.160;6.990;2023-05-07T12:55:52;31.73;;;29.42;;
52620;SDS011;38515;53.160;6.990;2023-05-07T13:00:55;29.13;;;26.92;;
52620;SDS011;38515;53.160;6.990;2023-05-07T13:03:26;31.05;;;28.95;;
52620;SDS011;38515;53.160;6.990;2023-05-07T13:05:53;30.52;;;28.25;;
52620;SDS011;38515;53.160;6.990;2023-05-07T13:08:24;38.90;;;36.38;;
52620;SDS011;38515;53.160;6.990;2023-05-07T13:10:50;31.35;;;29.05;;
52620;SDS011;38515;53.160;6.990;2023-05-07T13:13:17;29.63;;;27.33;;
52620;SDS011;38515;53.160;6.990;2023-05-07T13:15:43;39.33;;;36.80;;
52620;SDS011;38515;53.160;6.990;2023-05-07T13:18:08;41.33;;;38.72;;
52620;SDS011;38515;53.160;6.990;2023-05-07T13:20:36;43.92;;;41.42;;
52620;SDS011;38515;53.160;6.990;2023-05-07T13:23:02;37.00;;;34.70;;
52620;SDS011;38515;53.160;6.990;2023-05-07T13:25:29;37.63;;;34.92;;
52620;SDS011;38515;53.160;6.990;2023-05-07T13:27:59;40.30;;;37.70;;
52620;SDS011;38515;53.160;6.990;2023-05-07T13:30:25;30.17;;;27.98;;
52620;SDS011;38515;53.160;6.990;2023-05-07T13:32:51;37.85;;;35.45;;
52620;SDS011;38515;53.160;6.990;2023-05-07T13:35:20;39.42;;;36.97;;
52620;SDS011;38515;53.160;6.990;2023-05-07T13:37:46;41.95;;;39.38;;
52620;SDS011;38515;53.160;6.990;2023-05-07T13:40:14;37.95;;;35.63;;
52620;SDS011;38515;53.160;6.990;2023-05-07T13:42:40;35.67;;;33.50;;
52620;SDS011;38515;53.160;6.990;2023-05-07T13:45:06;36.08;;;33.70;;
52620;SDS011;38515;53.160;6.990;2023-05-07T13:47:33;34.17;;;31.77;;
52620;SDS011;38515;53.160;6.990;2023-05-07T13:49:59;45.83;;;43.22;;
52620;SDS011;38515;53.160;6.990;2023-05-07T13:52:25;37.38;;;35.03;;
52620;SDS011;38515;53.160;6.990;2023-05-07T13:54:51;62.30;;;58.88;;
52620;SDS011;38515;53.160;6.990;2023-05-07T13:57:21;37.50;;;35.10;;
52620;SDS011;38515;53.160;6.990;2023-05-07T13:59:47;35.55;;;33.47;;
52620;SDS011;38515;53.160;6.990;2023-05-07T14:02:13;31.00;;;28.88;;
52620;SDS011;38515;53.160;6.990;2023-05-07T14:04:40;38.15;;;35.70;;
52620;SDS011;38515;53.160;6.990;2023-05-07T14:07:06;36.25;;;34.00;;
52620;SDS011;38515;53.160;6.990;2023-05-07T14:09:32;30.35;;;28.35;;
52620;SDS011;38515;53.160;6.990;2023-05-07T14:11:58;36.83;;;34.33;;
52620;SDS011;38515;53.160;6.990;2023-05-07T14:14:24;32.38;;;30.08;;
52620;SDS011;38515;53.160;6.990;2023-05-07T14:16:50;32.70;;;30.55;;
52620;SDS011;38515;53.160;6.990;2023-05-07T14:19:16;35.83;;;33.47;;
52620;SDS011;38515;53.160;6.990;2023-05-07T14:21:42;38.17;;;35.72;;
52620;SDS011;38515;53.160;6.990;2023-05-07T14:24:07;40.10;;;37.60;;
52620;SDS011;38515;53.160;6.990;2023-05-07T14:26:34;41.30;;;38.88;;
52620;SDS011;38515;53.160;6.990;2023-05-07T14:28:59;46.92;;;44.08;;
52620;SDS011;38515;53.160;6.990;2023-05-07T14:31:25;40.53;;;37.97;;